createdAt,value
2022-09-10T00:00:33.586Z,1.48
2022-09-10T00:03:02.846Z,1.55
2022-09-10T00:05:31.990Z,2.13
2022-09-10T00:07:59.594Z,2.20
2022-09-10T00:10:27.398Z,1.80
2022-09-10T00:12:55.738Z,1.60
2022-09-10T00:15:23.550Z,1.52
2022-09-10T00:17:51.185Z,2.80
2022-09-10T00:20:19.005Z,1.73
2022-09-10T00:22:48.873Z,1.63
2022-09-10T00:25:16.531Z,1.70
2022-09-10T00:27:44.169Z,1.70
2022-09-10T00:30:12.807Z,1.85
2022-09-10T00:32:40.534Z,2.22
2022-09-10T00:35:08.956Z,2.28
2022-09-10T00:37:37.526Z,1.58
2022-09-10T00:40:09.229Z,2.00
2022-09-10T00:42:36.873Z,1.58
2022-09-10T00:45:05.822Z,1.50
2022-09-10T00:47:38.494Z,2.22
2022-09-10T00:50:13.696Z,2.17
2022-09-10T00:52:41.919Z,1.98
2022-09-10T00:55:13.460Z,2.10
2022-09-10T00:57:42.793Z,1.75
2022-09-10T01:00:13.643Z,1.90
2022-09-10T01:02:41.577Z,1.85
2022-09-10T01:05:11.627Z,2.22
2022-09-10T01:07:40.286Z,2.00
2022-09-10T01:10:12.832Z,1.92
2022-09-10T01:12:59.115Z,2.00
2022-09-10T01:15:36.349Z,1.85
2022-09-10T01:18:18.753Z,2.33
2022-09-10T01:20:57.115Z,1.98
2022-09-10T01:24:00.690Z,1.90
2022-09-10T01:26:45.414Z,2.05
2022-09-10T01:29:22.151Z,2.03
2022-09-10T01:31:55.202Z,1.95
2022-09-10T01:34:29.726Z,2.10
2022-09-10T01:37:03.093Z,2.03
2022-09-10T01:39:31.579Z,2.20
2022-09-10T01:41:59.215Z,2.65
2022-09-10T01:44:47.325Z,2.15
2022-09-10T01:47:21.957Z,1.92
2022-09-10T01:50:07.910Z,2.75
2022-09-10T01:52:43.842Z,2.25
2022-09-10T01:55:20.742Z,2.20
2022-09-10T01:57:55.480Z,2.42
2022-09-10T02:00:26.653Z,2.47
2022-09-10T02:02:59.990Z,2.20
2022-09-10T02:05:31.375Z,2.35
2022-09-10T02:08:03.684Z,2.22
2022-09-10T02:10:31.962Z,1.98
2022-09-10T02:12:59.703Z,2.55
2022-09-10T02:15:32.540Z,1.88
2022-09-10T02:18:01.316Z,2.45
2022-09-10T02:20:30.422Z,2.20
2022-09-10T02:23:00.928Z,2.45
2022-09-10T02:25:34.188Z,2.08
2022-09-10T02:28:02.020Z,2.38
2022-09-10T02:30:31.032Z,2.30
2022-09-10T02:32:58.690Z,2.25
2022-09-10T02:35:26.365Z,2.35
2022-09-10T02:37:53.976Z,2.80
2022-09-10T02:40:21.603Z,2.28
2022-09-10T02:42:49.233Z,2.15
2022-09-10T02:45:17.143Z,2.58
2022-09-10T02:47:46.162Z,3.38
2022-09-10T02:50:13.782Z,2.70
2022-09-10T02:52:41.393Z,2.30
2022-09-10T02:55:09.513Z,2.67
2022-09-10T02:57:37.110Z,2.70
2022-09-10T03:00:05.343Z,3.03
2022-09-10T03:02:33.433Z,2.50
2022-09-10T03:05:04.824Z,3.70
2022-09-10T03:07:32.587Z,2.20
2022-09-10T03:10:00.223Z,2.47
2022-09-10T03:12:27.868Z,2.13
2022-09-10T03:14:58.041Z,2.65
2022-09-10T03:17:26.054Z,2.15
2022-09-10T03:19:53.677Z,2.92
2022-09-10T03:22:22.733Z,3.25
2022-09-10T03:24:50.373Z,2.50
2022-09-10T03:27:18.071Z,2.25
2022-09-10T03:29:45.719Z,3.15
2022-09-10T03:32:13.366Z,3.35
2022-09-10T03:34:40.983Z,2.70
2022-09-10T03:37:08.638Z,3.13
2022-09-10T03:39:37.655Z,2.70
2022-09-10T03:42:05.829Z,2.20
2022-09-10T03:44:34.027Z,2.40
2022-09-10T03:47:01.662Z,3.03
2022-09-10T03:49:29.551Z,2.65
2022-09-10T03:51:57.177Z,2.90
2022-09-10T03:54:24.813Z,3.22
2022-09-10T03:56:53.925Z,3.08
2022-09-10T03:59:21.861Z,2.85
2022-09-10T04:01:50.713Z,2.65
2022-09-10T04:04:18.404Z,3.33
2022-09-10T04:06:46.073Z,2.78
2022-09-10T04:09:13.688Z,3.20
2022-09-10T04:11:41.356Z,2.70
2022-09-10T04:14:10.489Z,2.80
2022-09-10T04:16:38.336Z,3.00
2022-09-10T04:19:05.983Z,2.83
2022-09-10T04:21:33.591Z,2.97
2022-09-10T04:24:01.271Z,2.80
2022-09-10T04:26:28.897Z,3.72
2022-09-10T04:28:56.547Z,3.30
2022-09-10T04:31:25.684Z,2.58
2022-09-10T04:33:53.659Z,2.65
2022-09-10T04:36:21.322Z,3.10
2022-09-10T04:38:48.968Z,2.53
2022-09-10T04:41:18.161Z,2.70
2022-09-10T04:43:46.091Z,2.95
2022-09-10T04:46:13.730Z,2.75
2022-09-10T04:48:42.731Z,3.58
2022-09-10T04:51:17.439Z,2.85
2022-09-10T04:53:46.148Z,3.40
2022-09-10T04:56:14.258Z,4.13
2022-09-10T04:58:42.281Z,3.17
2022-09-10T05:01:10.251Z,2.70
2022-09-10T05:03:38.120Z,3.00
2022-09-10T05:06:07.471Z,3.92
2022-09-10T05:08:35.249Z,2.83
2022-09-10T05:11:03.253Z,2.90
2022-09-10T05:13:31.619Z,2.92
2022-09-10T05:15:59.740Z,3.10
2022-09-10T05:18:27.422Z,2.58
2022-09-10T05:20:55.139Z,3.08
2022-09-10T05:23:24.190Z,2.65
2022-09-10T05:25:51.814Z,3.65
2022-09-10T05:28:20.809Z,3.03
2022-09-10T05:30:51.702Z,3.10
2022-09-10T05:33:19.693Z,3.70
2022-09-10T05:35:51.507Z,3.20
2022-09-10T05:38:19.554Z,4.10
2022-09-10T05:40:48.972Z,3.78
2022-09-10T05:43:16.610Z,3.20
2022-09-10T05:45:44.326Z,3.53
2022-09-10T05:48:12.013Z,3.22
2022-09-10T05:50:39.675Z,3.70
2022-09-10T05:53:07.331Z,3.65
2022-09-10T05:55:35.058Z,3.55
2022-09-10T05:58:04.123Z,3.83
2022-09-10T06:00:31.878Z,3.67
2022-09-10T06:02:59.626Z,4.10
2022-09-10T06:05:27.799Z,3.60
2022-09-10T06:07:56.605Z,4.32
2022-09-10T06:10:24.553Z,4.72
2022-09-10T06:12:52.728Z,4.05
2022-09-10T06:15:22.191Z,3.83
2022-09-10T06:17:50.037Z,4.38
2022-09-10T06:20:17.679Z,3.88
2022-09-10T06:22:45.271Z,4.10
2022-09-10T06:25:12.967Z,3.38
2022-09-10T06:27:41.393Z,3.80
2022-09-10T06:30:09.945Z,3.97
2022-09-10T06:32:39.289Z,3.47
2022-09-10T06:35:07.592Z,3.65
2022-09-10T06:37:35.249Z,3.55
2022-09-10T06:40:03.413Z,3.80
2022-09-10T06:42:32.157Z,4.03
2022-09-10T06:45:00.388Z,4.32
2022-09-10T06:48:06.825Z,4.13
2022-09-10T06:50:17.236Z,3.75
2022-09-10T06:52:44.886Z,3.63
2022-09-10T06:55:12.967Z,4.60
2022-09-10T06:57:40.785Z,4.07
2022-09-10T07:00:09.657Z,5.35
2022-09-10T07:02:37.295Z,4.45
2022-09-10T07:05:05.372Z,5.10
2022-09-10T07:07:34.365Z,4.22
2022-09-10T07:10:02.370Z,4.25
2022-09-10T07:12:29.977Z,4.20
2022-09-10T07:14:57.623Z,4.25
2022-09-10T07:17:28.735Z,3.80
2022-09-10T07:19:59.389Z,4.05
2022-09-10T07:22:26.978Z,4.15
2022-09-10T07:24:56.100Z,4.25
2022-09-10T07:27:23.827Z,4.00
2022-09-10T07:29:52.025Z,3.88
2022-09-10T07:32:19.657Z,3.90
2022-09-10T07:34:47.632Z,3.58
2022-09-10T07:37:15.717Z,3.70
2022-09-10T07:39:43.397Z,4.10
2022-09-10T07:42:12.480Z,3.80
2022-09-10T07:44:40.106Z,4.53
2022-09-10T07:47:07.813Z,3.67
2022-09-10T07:49:35.483Z,4.57
2022-09-10T07:52:04.312Z,3.80
2022-09-10T07:54:31.936Z,4.93
2022-09-10T07:56:59.586Z,4.25
2022-09-10T07:59:28.547Z,4.38
2022-09-10T08:01:56.252Z,4.82
2022-09-10T08:04:24.449Z,4.28
2022-09-10T08:06:52.270Z,4.22
2022-09-10T08:09:20.361Z,4.03
2022-09-10T08:11:48.044Z,5.43
2022-09-10T08:14:16.463Z,3.53
2022-09-10T08:16:45.521Z,3.85
2022-09-10T08:19:13.875Z,3.83
2022-09-10T08:21:41.728Z,3.92
2022-09-10T08:24:11.499Z,4.28
2022-09-10T08:26:39.162Z,3.83
2022-09-10T08:29:07.099Z,3.50
2022-09-10T08:31:35.100Z,3.60
2022-09-10T08:34:04.143Z,3.70
2022-09-10T08:36:31.899Z,5.03
2022-09-10T08:39:03.080Z,9.15
2022-09-10T08:41:42.588Z,12.25
2022-09-10T08:44:16.177Z,12.20
2022-09-10T08:46:48.392Z,12.20
2022-09-10T08:49:24.883Z,11.00
2022-09-10T08:51:58.122Z,9.50
2022-09-10T08:54:32.604Z,9.25
2022-09-10T08:57:03.638Z,8.25
2022-09-10T08:59:35.411Z,8.20
2022-09-10T09:02:37.819Z,6.05
2022-09-10T09:05:13.523Z,5.55
2022-09-10T09:07:41.500Z,5.53
2022-09-10T09:10:20.605Z,4.70
2022-09-10T09:13:04.218Z,4.68
2022-09-10T09:15:41.457Z,4.97
2022-09-10T09:18:21.759Z,4.25
2022-09-10T09:20:56.152Z,4.88
2022-09-10T09:23:26.237Z,4.22
2022-09-10T09:25:59.047Z,4.20
2022-09-10T09:28:41.801Z,4.30
2022-09-10T09:31:15.120Z,3.65
2022-09-10T09:33:45.364Z,3.67
2022-09-10T09:36:18.027Z,3.20
2022-09-10T09:38:50.897Z,3.92
2022-09-10T09:41:25.468Z,4.50
2022-09-10T09:43:59.388Z,3.75
2022-09-10T09:46:27.094Z,2.83
2022-09-10T09:49:00.077Z,3.20
2022-09-10T09:51:35.328Z,3.55
2022-09-10T09:56:59.971Z,3.40
2022-09-10T09:59:29.384Z,3.22
2022-09-10T10:02:01.156Z,3.42
2022-09-10T10:04:31.207Z,3.08
2022-09-10T10:07:01.975Z,3.60
2022-09-10T10:09:32.111Z,4.10
2022-09-10T10:12:01.546Z,3.50
2022-09-10T10:14:39.321Z,3.20
2022-09-10T10:17:38.452Z,3.60
2022-09-10T10:20:12.745Z,3.63
2022-09-10T10:22:43.135Z,4.25
2022-09-10T10:25:36.510Z,4.38
2022-09-10T10:28:04.609Z,4.35
2022-09-10T10:30:33.108Z,4.32
2022-09-10T10:33:02.943Z,4.20
2022-09-10T10:35:35.992Z,4.57
2022-09-10T10:38:25.135Z,4.07
2022-09-10T10:41:19.414Z,3.63
2022-09-10T10:43:55.704Z,4.10
2022-09-10T10:46:30.981Z,3.53
2022-09-10T10:49:10.362Z,3.78
2022-09-10T10:51:48.287Z,3.35
2022-09-10T10:54:35.206Z,3.53
2022-09-10T10:57:12.846Z,3.88
2022-09-10T10:59:53.174Z,3.38
2022-09-10T11:02:29.980Z,3.42
2022-09-10T11:05:02.442Z,3.70
2022-09-10T11:07:35.387Z,3.70
2022-09-10T11:10:13.447Z,3.38
2022-09-10T11:12:46.485Z,3.17
2022-09-10T11:15:30.285Z,3.40
2022-09-10T11:18:06.032Z,3.78
2022-09-10T11:20:41.211Z,3.10
2022-09-10T11:23:20.839Z,3.05
2022-09-10T11:25:57.059Z,3.10
2022-09-10T11:28:29.067Z,3.25
2022-09-10T11:31:03.251Z,2.90
2022-09-10T11:33:39.434Z,2.60
2022-09-10T11:36:15.354Z,2.22
2022-09-10T11:38:52.953Z,2.65
2022-09-10T11:41:25.204Z,2.65
2022-09-10T11:43:58.185Z,2.40
2022-09-10T11:46:31.740Z,2.20
2022-09-10T11:49:04.041Z,2.70
2022-09-10T11:51:34.911Z,2.72
2022-09-10T11:54:04.981Z,2.92
2022-09-10T11:56:47.002Z,2.38
2022-09-10T11:59:28.055Z,2.75
2022-09-10T12:02:15.934Z,2.00
2022-09-10T12:04:50.735Z,1.85
2022-09-10T12:07:32.454Z,1.85
2022-09-10T12:10:14.155Z,2.33
2022-09-10T12:12:45.795Z,2.13
2022-09-10T12:15:18.602Z,2.03
2022-09-10T12:17:50.760Z,2.13
2022-09-10T12:20:21.861Z,2.17
2022-09-10T12:22:54.715Z,2.03
2022-09-10T12:25:34.345Z,1.58
2022-09-10T12:28:07.870Z,1.98
2022-09-10T12:31:02.718Z,2.03
2022-09-10T12:34:08.071Z,1.70
2022-09-10T12:37:19.178Z,1.75
2022-09-10T12:39:46.969Z,1.70
2022-09-10T12:42:29.780Z,1.73
2022-09-10T12:44:58.946Z,1.80
2022-09-10T12:47:41.135Z,1.90
2022-09-10T12:50:21.482Z,2.17
2022-09-10T12:53:05.702Z,1.38
2022-09-10T12:55:44.387Z,2.10
2022-09-10T12:58:24.068Z,1.90
2022-09-10T13:01:11.861Z,1.55
2022-09-10T13:03:50.694Z,1.67
2022-09-10T13:06:18.621Z,1.80
2022-09-10T13:08:48.370Z,1.98
2022-09-10T13:11:20.919Z,1.95
2022-09-10T13:13:54.983Z,2.10
2022-09-10T13:16:41.251Z,2.22
2022-09-10T13:19:42.825Z,2.08
2022-09-10T13:22:32.345Z,2.13
2022-09-10T13:25:03.090Z,2.25
2022-09-10T13:27:39.992Z,1.70
2022-09-10T13:30:29.777Z,1.75
2022-09-10T13:33:01.654Z,1.60
2022-09-10T13:36:03.178Z,2.13
2022-09-10T13:39:06.194Z,2.35
2022-09-10T13:41:58.648Z,1.85
2022-09-10T13:44:41.052Z,1.73
2022-09-10T13:47:13.777Z,1.70
2022-09-10T13:49:54.734Z,1.83
2022-09-10T13:52:29.166Z,1.60
2022-09-10T13:54:58.661Z,1.77
2022-09-10T13:57:30.914Z,1.70
2022-09-10T14:00:05.672Z,1.70
2022-09-10T14:02:44.223Z,1.80
2022-09-10T14:05:41.931Z,2.00
2022-09-10T14:08:17.654Z,1.88
2022-09-10T14:10:55.942Z,1.80
2022-09-10T14:13:29.514Z,1.70
2022-09-10T14:16:00.638Z,1.60
2022-09-10T14:18:35.316Z,1.90
2022-09-10T14:21:04.928Z,1.98
2022-09-10T14:23:32.888Z,1.77
2022-09-10T14:26:12.167Z,2.22
2022-09-10T14:28:50.344Z,1.88
2022-09-10T14:31:29.849Z,2.78
2022-09-10T14:33:58.364Z,2.92
2022-09-10T14:36:34.679Z,2.60
2022-09-10T14:41:37.126Z,2.60
2022-09-10T14:44:16.570Z,2.30
2022-09-10T14:46:51.381Z,2.38
2022-09-10T14:49:25.580Z,2.20
2022-09-10T14:51:55.115Z,2.80
2022-09-10T14:54:24.424Z,2.40
2022-09-10T14:56:52.751Z,2.78
2022-09-10T14:59:29.243Z,2.78
2022-09-10T15:04:26.859Z,3.42
2022-09-10T15:06:57.281Z,3.88
2022-09-10T15:09:25.788Z,3.88
2022-09-10T15:11:56.529Z,3.92
2022-09-10T15:14:24.929Z,4.28
2022-09-10T15:16:54.111Z,3.70
2022-09-10T15:19:22.515Z,4.47
2022-09-10T15:21:50.933Z,3.58
2022-09-10T15:24:21.708Z,3.47
2022-09-10T15:26:51.491Z,3.40
2022-09-10T15:29:19.706Z,2.92
2022-09-10T15:31:47.351Z,3.33
2022-09-10T15:34:15.265Z,3.30
2022-09-10T15:36:43.094Z,3.30
2022-09-10T15:39:13.905Z,3.20
2022-09-10T15:41:45.195Z,3.15
2022-09-10T15:44:13.429Z,3.00
2022-09-10T15:46:45.212Z,3.42
2022-09-10T15:49:13.134Z,3.45
2022-09-10T15:51:42.128Z,4.10
2022-09-10T15:54:10.945Z,3.05
2022-09-10T15:56:39.165Z,3.38
2022-09-10T15:59:08.614Z,3.28
2022-09-10T16:01:38.281Z,3.30
2022-09-10T16:04:06.763Z,3.17
2022-09-10T16:06:36.506Z,3.00
2022-09-10T16:09:07.132Z,3.20
2022-09-10T16:11:37.300Z,3.50
2022-09-10T16:14:07.032Z,3.45
2022-09-10T16:16:37.229Z,3.83
2022-09-10T16:19:05.729Z,3.42
2022-09-10T16:21:36.190Z,3.35
2022-09-10T16:24:05.197Z,3.42
2022-09-10T16:26:34.606Z,5.05
2022-09-10T16:29:05.761Z,4.35
2022-09-10T16:31:35.707Z,3.70
2022-09-10T16:34:06.987Z,3.70
2022-09-10T16:36:36.865Z,4.28
2022-09-10T16:39:07.372Z,3.97
2022-09-10T16:41:35.034Z,3.95
2022-09-10T16:44:02.980Z,3.75
2022-09-10T16:46:30.966Z,3.55
2022-09-10T16:48:59.486Z,3.38
2022-09-10T16:51:29.695Z,3.40
2022-09-10T16:54:02.445Z,3.63
2022-09-10T16:56:33.578Z,3.95
2022-09-10T16:59:01.346Z,3.58
2022-09-10T17:01:29.477Z,3.28
2022-09-10T17:03:57.193Z,4.07
2022-09-10T17:06:27.389Z,3.65
2022-09-10T17:08:58.291Z,3.90
2022-09-10T17:11:27.441Z,3.70
2022-09-10T17:13:56.846Z,3.75
2022-09-10T17:16:26.139Z,3.50
2022-09-10T17:18:58.437Z,3.95
2022-09-10T17:21:26.525Z,3.30
2022-09-10T17:23:56.208Z,3.70
2022-09-10T17:26:24.270Z,3.95
2022-09-10T17:28:56.475Z,3.55
2022-09-10T17:31:24.955Z,4.05
2022-09-10T17:33:52.845Z,3.33
2022-09-10T17:36:20.879Z,3.78
2022-09-10T17:38:48.999Z,3.47
2022-09-10T17:41:17.974Z,3.35
2022-09-10T17:43:45.629Z,3.17
2022-09-10T17:46:17.702Z,3.30
2022-09-10T17:48:45.859Z,3.58
2022-09-10T17:51:15.345Z,2.55
2022-09-10T17:53:43.410Z,2.55
2022-09-10T17:56:14.140Z,2.58
2022-09-10T17:58:43.644Z,2.55
2022-09-10T18:01:22.530Z,2.33
2022-09-10T18:03:51.371Z,2.92
2022-09-10T18:06:19.225Z,2.45
2022-09-10T18:08:46.945Z,2.30
2022-09-10T18:11:17.422Z,2.38
2022-09-10T18:13:49.261Z,2.95
2022-09-10T18:16:18.731Z,2.13
2022-09-10T18:18:52.699Z,3.63
2022-09-10T18:21:23.931Z,2.80
2022-09-10T18:23:53.024Z,2.42
2022-09-10T18:26:23.597Z,2.50
2022-09-10T18:28:59.400Z,3.03
2022-09-10T18:31:29.481Z,2.85
2022-09-10T18:33:58.084Z,2.78
2022-09-10T18:36:26.352Z,2.72
2022-09-10T18:38:54.182Z,2.72
2022-09-10T18:41:24.860Z,2.75
2022-09-10T18:43:53.861Z,3.13
2022-09-10T18:46:23.746Z,2.83
2022-09-10T18:48:52.315Z,2.60
2022-09-10T18:51:22.132Z,2.60
2022-09-10T18:53:54.048Z,2.50
2022-09-10T18:56:24.283Z,2.67
2022-09-10T18:58:53.512Z,2.80
2022-09-10T19:01:23.441Z,2.53
2022-09-10T19:03:51.261Z,2.33
2022-09-10T19:06:21.295Z,2.45
2022-09-10T19:08:50.303Z,2.35
2022-09-10T19:11:18.973Z,2.10
2022-09-10T19:13:49.601Z,2.50
2022-09-10T19:16:18.087Z,2.17
2022-09-10T19:18:50.780Z,2.45
2022-09-10T19:21:20.144Z,2.42
2022-09-10T19:23:49.269Z,2.47
2022-09-10T19:26:17.056Z,2.45
2022-09-10T19:28:45.470Z,2.78
2022-09-10T19:31:15.667Z,2.55
2022-09-10T19:33:43.867Z,2.67
2022-09-10T19:36:15.430Z,2.53
2022-09-10T19:38:43.341Z,2.80
2022-09-10T19:41:13.114Z,2.65
2022-09-10T19:43:42.128Z,2.55
2022-09-10T19:46:11.614Z,2.72
2022-09-10T19:48:39.947Z,2.33
2022-09-10T19:51:09.968Z,2.50
2022-09-10T19:53:40.325Z,2.20
2022-09-10T19:56:11.267Z,2.67
2022-09-10T19:58:39.276Z,2.30
2022-09-10T20:01:10.581Z,2.28
2022-09-10T20:03:39.885Z,2.38
2022-09-10T20:06:11.326Z,2.65
2022-09-10T20:08:41.705Z,2.63
2022-09-10T20:11:15.267Z,2.45
2022-09-10T20:13:43.419Z,2.60
2022-09-10T20:16:11.198Z,2.40
2022-09-10T20:18:39.358Z,2.78
2022-09-10T20:21:12.866Z,2.88
2022-09-10T20:23:42.980Z,2.45
2022-09-10T20:26:14.218Z,2.47
2022-09-10T20:28:42.238Z,3.20
2022-09-10T20:31:11.842Z,3.67
2022-09-10T20:33:42.273Z,3.30
2022-09-10T20:36:14.981Z,3.35
2022-09-10T20:38:44.270Z,2.70
2022-09-10T20:41:12.859Z,3.17
2022-09-10T20:43:40.947Z,3.10
2022-09-10T20:46:15.921Z,3.17
2022-09-10T20:48:48.847Z,3.05
2022-09-10T20:51:18.015Z,3.30
2022-09-10T20:53:47.691Z,3.28
2022-09-10T20:56:17.598Z,3.35
2022-09-10T20:58:46.252Z,3.13
2022-09-10T21:01:16.423Z,3.53
2022-09-10T21:03:44.609Z,3.33
2022-09-10T21:06:13.949Z,3.83
2022-09-10T21:08:43.115Z,3.80
2022-09-10T21:11:15.183Z,3.25
2022-09-10T21:13:45.140Z,3.80
2022-09-10T21:16:14.499Z,3.92
2022-09-10T21:18:42.890Z,3.58
2022-09-10T21:21:12.042Z,3.45
2022-09-10T21:23:44.290Z,3.50
2022-09-10T21:26:14.610Z,4.20
2022-09-10T21:28:44.705Z,3.53
2022-09-10T21:31:13.740Z,3.70
2022-09-10T21:33:43.351Z,3.78
2022-09-10T21:36:14.490Z,3.28
2022-09-10T21:38:42.320Z,4.30
2022-09-10T21:41:15.832Z,3.55
2022-09-10T21:43:45.041Z,4.32
2022-09-10T21:46:13.770Z,4.40
2022-09-10T21:48:42.632Z,3.97
2022-09-10T21:51:13.810Z,3.85
2022-09-10T21:53:42.541Z,4.38
2022-09-10T21:56:12.254Z,4.45
2022-09-10T21:58:41.964Z,4.57
2022-09-10T22:01:11.764Z,4.53
2022-09-10T22:03:39.854Z,4.50
2022-09-10T22:06:09.074Z,4.47
2022-09-10T22:08:38.345Z,4.35
2022-09-10T22:11:08.182Z,4.63
2022-09-10T22:13:37.905Z,4.63
2022-09-10T22:16:07.649Z,4.78
2022-09-10T22:18:35.348Z,4.38
2022-09-10T22:21:03.344Z,4.03
2022-09-10T22:23:33.322Z,4.75
2022-09-10T22:26:05.777Z,4.43
2022-09-10T22:28:35.015Z,5.03
2022-09-10T22:31:12.318Z,4.32
2022-09-10T22:33:41.581Z,4.47
2022-09-10T22:36:11.337Z,4.53
2022-09-10T22:38:39.266Z,3.83
2022-09-10T22:41:07.324Z,4.30
2022-09-10T22:43:35.667Z,4.28
2022-09-10T22:46:04.491Z,3.72
2022-09-10T22:48:33.978Z,4.53
2022-09-10T22:51:02.200Z,4.20
2022-09-10T22:53:30.064Z,4.38
2022-09-10T22:55:58.087Z,4.43
2022-09-10T22:58:26.332Z,4.15
2022-09-10T23:00:54.294Z,4.88
2022-09-10T23:03:22.369Z,4.60
2022-09-10T23:05:51.419Z,4.80
2022-09-10T23:08:19.089Z,4.25
2022-09-10T23:10:46.727Z,4.00
2022-09-10T23:13:14.371Z,4.15
2022-09-10T23:15:42.632Z,4.22
2022-09-10T23:18:11.236Z,4.20
2022-09-10T23:20:39.075Z,5.10
2022-09-10T23:23:08.055Z,5.32
2022-09-10T23:25:36.151Z,4.30
2022-09-10T23:28:07.195Z,4.82
2022-09-10T23:30:35.909Z,5.00
2022-09-10T23:33:03.545Z,4.68
2022-09-10T23:35:31.187Z,4.55
2022-09-10T23:37:58.844Z,4.72
2022-09-10T23:40:32.282Z,4.68
2022-09-10T23:43:01.741Z,4.97
2022-09-10T23:45:29.379Z,4.70
2022-09-10T23:47:57.142Z,5.07
2022-09-10T23:50:24.751Z,5.60
2022-09-10T23:52:52.374Z,5.05
2022-09-10T23:55:20.136Z,5.10
2022-09-10T23:57:49.132Z,5.18
